Terminal Aerodrome Forecast
Issued by NWS

Home | Current Version | Previous Version | Text Only | Print | Product List | Glossary Off
Versions: 1 2 3 4 5 6 7 8 9 10 11 12 13 14 15 16 17 18

000
FTUS43 KBIS 250045 AAA
TAFMOT
TAF AMD
KMOT 250045Z 2501/2524 30007KT P6SM SCT008 SCT040
     FM250400 31015KT P6SM VCSH BKN020
     FM250600 32016G22KT P6SM VCSH OVC008
     FM250800 32021G29KT P6SM -SHRA OVC008
     FM251400 30023G34KT P6SM BKN035
     FM251700 29025G35KT P6SM SCT050
     FM252300 30017G24KT P6SM SKC=

USA.gov is the U.S. government's official web portal to all federal, state and local government web resources and services.